createdAt,value
2018-01-17T00:02:02.508Z,3.77
2018-01-17T00:04:30.195Z,3.77
2018-01-17T00:06:57.996Z,3.69
2018-01-17T00:09:25.663Z,3.61
2018-01-17T00:11:53.404Z,3.70
2018-01-17T00:14:21.184Z,3.80
2018-01-17T00:16:48.805Z,3.79
2018-01-17T00:19:16.405Z,3.85
2018-01-17T00:21:44.156Z,3.89
2018-01-17T00:24:11.797Z,3.78
2018-01-17T00:26:39.514Z,3.76
2018-01-17T00:29:07.287Z,3.74
2018-01-17T00:31:35.106Z,3.83
2018-01-17T00:34:02.738Z,3.76
2018-01-17T00:36:30.419Z,3.73
2018-01-17T00:38:58.055Z,3.84
2018-01-17T00:41:25.803Z,3.92
2018-01-17T00:43:53.468Z,3.96
2018-01-17T00:46:21.090Z,3.83
2018-01-17T00:48:48.718Z,3.90
2018-01-17T00:51:16.348Z,3.76
2018-01-17T00:53:43.978Z,3.82
2018-01-17T00:56:11.780Z,3.77
2018-01-17T00:58:39.404Z,3.68
2018-01-17T01:01:07.218Z,3.74
2018-01-17T01:03:34.875Z,3.64
2018-01-17T01:06:02.629Z,3.54
2018-01-17T01:08:30.394Z,3.71
2018-01-17T01:10:58.020Z,3.64
2018-01-17T01:13:25.648Z,3.87
2018-01-17T01:15:53.298Z,3.99
2018-01-17T01:18:20.907Z,4.21
2018-01-17T01:20:48.514Z,4.12
2018-01-17T01:23:16.298Z,3.94
2018-01-17T01:25:43.910Z,3.95
2018-01-17T01:28:11.518Z,4.01
2018-01-17T01:30:39.138Z,3.88
2018-01-17T01:33:06.739Z,3.79
2018-01-17T01:35:34.466Z,3.82
2018-01-17T01:38:02.103Z,3.63
2018-01-17T01:40:29.878Z,3.53
2018-01-17T01:42:57.544Z,3.50
2018-01-17T01:45:25.238Z,3.77
2018-01-17T01:47:52.945Z,3.73
2018-01-17T01:50:20.558Z,3.56
2018-01-17T01:52:48.195Z,3.56
2018-01-17T01:55:15.943Z,3.74
2018-01-17T01:57:43.579Z,3.65
2018-01-17T02:00:11.178Z,3.66
2018-01-17T02:02:38.801Z,3.59
2018-01-17T02:05:06.424Z,3.45
2018-01-17T02:07:34.020Z,3.19
2018-01-17T02:10:01.805Z,3.04
2018-01-17T02:12:29.514Z,2.99
2018-01-17T02:14:57.135Z,3.11
2018-01-17T02:17:25.036Z,2.96
2018-01-17T02:19:52.653Z,3.00
2018-01-17T02:22:20.289Z,3.05
2018-01-17T02:24:47.959Z,3.00
2018-01-17T02:27:15.581Z,3.05
2018-01-17T02:29:43.269Z,3.17
2018-01-17T02:32:10.883Z,3.04
2018-01-17T02:34:38.509Z,3.15
2018-01-17T02:37:06.125Z,3.29
2018-01-17T02:42:42.900Z,3.31
2018-01-17T02:45:10.514Z,3.38
2018-01-17T02:47:38.219Z,3.47
2018-01-17T02:50:05.864Z,3.43
2018-01-17T02:52:33.630Z,3.36
2018-01-17T02:55:01.246Z,3.39
2018-01-17T02:57:28.844Z,3.64
2018-01-17T02:59:56.456Z,3.53
2018-01-17T03:02:24.106Z,3.60
2018-01-17T03:04:51.908Z,3.64
2018-01-17T03:07:19.509Z,3.57
2018-01-17T03:09:47.216Z,3.67
2018-01-17T03:12:14.864Z,3.67
2018-01-17T03:14:42.710Z,3.47
2018-01-17T03:17:10.334Z,3.56
2018-01-17T03:19:37.950Z,3.63
2018-01-17T03:22:05.698Z,3.61
2018-01-17T03:24:33.311Z,3.50
2018-01-17T03:27:01.071Z,3.48
2018-01-17T03:29:28.773Z,3.54
2018-01-17T03:31:56.416Z,3.71
2018-01-17T03:34:24.308Z,3.63
2018-01-17T03:36:51.957Z,3.63
2018-01-17T03:39:19.645Z,3.57
2018-01-17T03:41:47.263Z,3.55
2018-01-17T03:44:14.908Z,3.68
2018-01-17T03:46:42.540Z,3.53
2018-01-17T03:49:10.245Z,3.52
2018-01-17T03:51:37.824Z,3.54
2018-01-17T03:54:05.438Z,3.50
2018-01-17T03:56:33.554Z,3.56
2018-01-17T03:59:01.434Z,3.49
2018-01-17T04:01:29.141Z,3.36
2018-01-17T04:03:56.828Z,3.41
2018-01-17T04:06:24.471Z,3.46
2018-01-17T04:08:52.100Z,3.35
2018-01-17T04:11:19.885Z,3.43
2018-01-17T04:13:47.630Z,3.39
2018-01-17T04:16:15.345Z,3.38
2018-01-17T04:18:43.150Z,3.33
2018-01-17T04:21:11.020Z,3.30
2018-01-17T04:23:38.634Z,3.49
2018-01-17T04:26:06.305Z,3.47
2018-01-17T04:28:34.106Z,3.37
2018-01-17T04:31:01.990Z,3.18
2018-01-17T04:33:29.616Z,3.31
2018-01-17T04:35:57.210Z,3.54
2018-01-17T04:38:24.886Z,3.50
2018-01-17T04:40:52.562Z,3.21
2018-01-17T04:43:20.364Z,2.84
2018-01-17T04:45:48.014Z,2.63
2018-01-17T04:48:15.724Z,2.21
2018-01-17T04:50:43.430Z,2.17
2018-01-17T04:53:11.085Z,2.25
2018-01-17T04:55:38.808Z,2.03
2018-01-17T04:58:06.470Z,2.06
2018-01-17T05:00:34.143Z,2.13
2018-01-17T05:03:01.783Z,1.95
2018-01-17T05:05:29.436Z,2.10
2018-01-17T05:07:57.053Z,2.04
2018-01-17T05:10:24.650Z,2.06
2018-01-17T05:12:52.328Z,2.16
2018-01-17T05:15:20.020Z,2.20
2018-01-17T05:17:47.644Z,2.08
2018-01-17T05:20:15.374Z,2.25
2018-01-17T05:22:43.065Z,2.23
2018-01-17T05:25:10.783Z,2.27
2018-01-17T05:27:38.428Z,2.20
2018-01-17T05:30:06.079Z,2.27
2018-01-17T05:32:33.828Z,2.37
2018-01-17T05:35:01.616Z,2.14
2018-01-17T05:37:29.224Z,2.18
2018-01-17T05:39:56.854Z,2.23
2018-01-17T05:42:24.484Z,2.01
2018-01-17T05:44:52.113Z,2.12
2018-01-17T05:47:19.758Z,2.12
2018-01-17T05:49:47.356Z,1.99
2018-01-17T05:52:14.974Z,2.02
2018-01-17T05:54:42.674Z,2.06
2018-01-17T05:57:10.446Z,2.00
2018-01-17T05:59:38.059Z,2.13
2018-01-17T06:02:05.900Z,2.05
2018-01-17T06:04:33.540Z,2.14
2018-01-17T06:07:01.240Z,2.24
2018-01-17T06:09:28.856Z,2.24
2018-01-17T06:11:56.535Z,2.25
2018-01-17T06:14:24.155Z,2.23
2018-01-17T06:16:51.881Z,2.07
2018-01-17T06:19:19.499Z,2.06
2018-01-17T06:21:47.120Z,2.03
2018-01-17T06:24:14.899Z,1.98
2018-01-17T06:26:42.604Z,1.96
2018-01-17T06:29:10.245Z,1.93
2018-01-17T06:31:37.875Z,1.87
2018-01-17T06:34:05.498Z,1.83
2018-01-17T06:36:33.130Z,1.77
2018-01-17T06:39:00.811Z,1.72
2018-01-17T06:41:28.520Z,1.79
2018-01-17T06:43:56.229Z,1.86
2018-01-17T06:46:23.856Z,1.79
2018-01-17T06:48:51.748Z,1.81
2018-01-17T06:51:19.530Z,1.91
2018-01-17T06:53:47.126Z,2.06
2018-01-17T06:56:14.919Z,1.89
2018-01-17T06:58:42.530Z,1.99
2018-01-17T07:01:10.218Z,1.98
2018-01-17T07:03:37.844Z,2.06
2018-01-17T07:06:05.475Z,1.86
2018-01-17T07:08:33.091Z,1.90
2018-01-17T07:11:00.756Z,1.97
2018-01-17T07:13:28.400Z,1.98
2018-01-17T07:15:56.056Z,1.81
2018-01-17T07:18:23.666Z,1.74
2018-01-17T07:20:51.299Z,1.76
2018-01-17T07:23:18.935Z,1.67
2018-01-17T07:25:46.540Z,1.76
2018-01-17T07:28:14.176Z,1.85
2018-01-17T07:30:41.966Z,1.78
2018-01-17T07:33:09.629Z,1.90
2018-01-17T07:35:37.415Z,1.84
2018-01-17T07:38:05.065Z,1.89
2018-01-17T07:40:32.760Z,1.92
2018-01-17T07:43:00.614Z,1.83
2018-01-17T07:45:28.250Z,1.95
2018-01-17T07:47:55.912Z,2.02
2018-01-17T07:50:23.545Z,2.01
2018-01-17T07:52:51.270Z,1.89
2018-01-17T07:55:18.904Z,2.06
2018-01-17T07:57:46.540Z,2.29
2018-01-17T08:00:14.239Z,2.25
2018-01-17T08:02:41.920Z,2.20
2018-01-17T08:05:09.626Z,2.27
2018-01-17T08:07:37.254Z,2.65
2018-01-17T08:10:05.111Z,2.64
2018-01-17T08:12:32.750Z,2.81
2018-01-17T08:15:00.356Z,2.87
2018-01-17T08:17:28.154Z,2.68
2018-01-17T08:19:55.895Z,2.54
2018-01-17T08:22:23.601Z,2.67
2018-01-17T08:24:51.221Z,2.73
2018-01-17T08:27:18.926Z,2.91
2018-01-17T08:29:46.630Z,3.11
2018-01-17T08:32:14.240Z,3.20
2018-01-17T08:34:41.856Z,3.31
2018-01-17T08:37:09.536Z,3.29
2018-01-17T08:39:37.194Z,3.24
2018-01-17T08:42:04.832Z,3.18
2018-01-17T08:44:32.482Z,3.33
2018-01-17T08:47:00.175Z,3.40
2018-01-17T08:49:27.814Z,3.55
2018-01-17T08:51:55.454Z,3.62
2018-01-17T08:54:23.355Z,3.86
2018-01-17T08:56:50.975Z,4.05
2018-01-17T08:59:18.640Z,4.11
2018-01-17T09:01:46.382Z,4.08
2018-01-17T09:04:14.257Z,4.01
2018-01-17T09:06:41.863Z,3.96
2018-01-17T09:09:09.446Z,3.82
2018-01-17T09:11:37.087Z,3.97
2018-01-17T09:14:04.735Z,3.95
2018-01-17T09:16:32.605Z,3.68
2018-01-17T09:19:00.338Z,3.46
2018-01-17T09:21:28.220Z,3.41
2018-01-17T09:23:55.976Z,3.68
2018-01-17T09:26:23.625Z,3.36
2018-01-17T09:28:51.291Z,3.35
2018-01-17T09:31:18.963Z,3.31
2018-01-17T09:33:46.690Z,3.33
2018-01-17T09:36:14.315Z,3.41
2018-01-17T09:38:41.992Z,3.38
2018-01-17T09:41:09.802Z,3.32
2018-01-17T09:43:37.410Z,3.14
2018-01-17T09:46:05.056Z,3.26
2018-01-17T09:48:32.671Z,3.10
2018-01-17T09:51:00.292Z,2.81
2018-01-17T09:53:27.919Z,2.49
2018-01-17T09:55:55.720Z,2.06
2018-01-17T09:58:23.540Z,1.55
2018-01-17T10:00:51.191Z,1.21
2018-01-17T10:03:18.882Z,1.18
2018-01-17T10:05:46.622Z,1.13
2018-01-17T10:08:14.287Z,1.05
2018-01-17T10:10:41.924Z,0.98
2018-01-17T10:13:09.526Z,1.04
2018-01-17T10:15:37.230Z,1.16
2018-01-17T10:18:04.895Z,1.32
2018-01-17T10:20:32.505Z,1.48
2018-01-17T10:23:00.257Z,1.23
2018-01-17T10:25:27.902Z,1.23
2018-01-17T10:27:55.528Z,1.25
2018-01-17T10:30:23.297Z,1.66
2018-01-17T10:32:51.053Z,1.77
2018-01-17T10:35:18.685Z,1.76
2018-01-17T10:37:46.297Z,1.82
2018-01-17T10:40:14.145Z,2.63
2018-01-17T10:42:41.862Z,3.67
2018-01-17T10:45:09.507Z,3.93
2018-01-17T10:47:37.235Z,3.50
2018-01-17T10:50:04.835Z,3.49
2018-01-17T10:52:32.533Z,2.98
2018-01-17T10:55:00.191Z,3.11
2018-01-17T10:57:27.810Z,3.18
2018-01-17T10:59:55.602Z,3.16
2018-01-17T11:02:23.311Z,3.28
2018-01-17T11:04:50.952Z,3.15
2018-01-17T11:07:18.552Z,3.06
2018-01-17T11:09:46.319Z,2.88
2018-01-17T11:12:13.967Z,2.65
2018-01-17T11:14:41.601Z,2.83
2018-01-17T11:17:09.358Z,2.90
2018-01-17T11:19:37.027Z,2.85
2018-01-17T11:22:04.812Z,2.79
2018-01-17T11:24:32.504Z,2.76
2018-01-17T11:27:00.148Z,2.61
2018-01-17T11:29:27.794Z,2.69
2018-01-17T11:31:55.503Z,2.84
2018-01-17T11:34:23.296Z,2.95
2018-01-17T11:36:50.896Z,3.52
2018-01-17T11:39:18.557Z,3.54
2018-01-17T11:41:46.161Z,3.35
2018-01-17T11:44:13.896Z,2.98
2018-01-17T11:46:41.567Z,3.34
2018-01-17T11:49:09.183Z,3.51
2018-01-17T11:51:36.797Z,3.55
2018-01-17T11:54:04.507Z,3.62
2018-01-17T11:56:32.131Z,3.14
2018-01-17T11:58:59.845Z,3.36
2018-01-17T12:01:27.485Z,2.86
2018-01-17T12:03:55.172Z,2.79
2018-01-17T12:06:22.971Z,2.73
2018-01-17T12:08:50.641Z,2.29
2018-01-17T12:11:18.261Z,1.98
2018-01-17T12:13:45.922Z,1.87
2018-01-17T12:16:13.751Z,1.87
2018-01-17T12:18:41.460Z,1.84
2018-01-17T12:21:09.325Z,1.93
2018-01-17T12:23:36.966Z,2.07
2018-01-17T12:26:04.616Z,1.84
2018-01-17T12:28:32.343Z,2.06
2018-01-17T12:31:00.032Z,2.57
2018-01-17T12:33:27.670Z,3.04
2018-01-17T12:35:55.276Z,2.88
2018-01-17T12:38:23.057Z,2.90
2018-01-17T12:40:50.864Z,2.88
2018-01-17T12:43:18.512Z,2.57
2018-01-17T12:45:46.288Z,2.48
2018-01-17T12:48:13.947Z,2.75
2018-01-17T12:50:41.575Z,2.66
2018-01-17T12:53:09.286Z,2.70
2018-01-17T12:55:36.931Z,2.52
2018-01-17T12:58:04.716Z,2.61
2018-01-17T13:00:32.386Z,2.66
2018-01-17T13:03:00.026Z,2.57
2018-01-17T13:05:27.680Z,2.57
2018-01-17T13:07:55.291Z,2.82
2018-01-17T13:10:23.953Z,2.73
2018-01-17T13:12:51.668Z,2.85
2018-01-17T13:15:19.422Z,2.62
2018-01-17T13:17:47.063Z,2.54
2018-01-17T13:20:14.666Z,2.74
2018-01-17T13:22:42.292Z,2.77
2018-01-17T13:25:10.196Z,2.82
2018-01-17T13:27:37.869Z,2.70
2018-01-17T13:30:05.493Z,2.89
2018-01-17T13:32:33.287Z,2.88
2018-01-17T13:35:00.910Z,2.82
2018-01-17T13:37:28.732Z,2.99
2018-01-17T13:39:56.463Z,3.37
2018-01-17T13:42:24.281Z,3.37
2018-01-17T13:44:52.007Z,3.24
2018-01-17T13:47:19.932Z,3.25
2018-01-17T13:49:47.643Z,3.37
2018-01-17T13:52:15.283Z,3.22
2018-01-17T13:54:42.956Z,3.09
2018-01-17T13:57:10.820Z,3.12
2018-01-17T13:59:38.437Z,2.96
2018-01-17T14:02:06.126Z,3.02
2018-01-17T14:04:33.865Z,3.02
2018-01-17T14:07:01.597Z,3.01
2018-01-17T14:09:29.241Z,3.12
2018-01-17T14:11:56.861Z,2.89
2018-01-17T14:14:24.713Z,3.03
2018-01-17T14:16:52.332Z,2.82
2018-01-17T14:19:19.992Z,2.70
2018-01-17T14:21:47.648Z,2.72
2018-01-17T14:24:15.292Z,2.71
2018-01-17T14:26:43.207Z,2.68
2018-01-17T14:29:10.838Z,2.63
2018-01-17T14:31:38.467Z,2.26
2018-01-17T14:34:06.096Z,2.12
2018-01-17T14:36:33.726Z,2.01
2018-01-17T14:39:01.340Z,2.10
2018-01-17T14:41:29.139Z,2.09
2018-01-17T14:43:56.761Z,2.02
2018-01-17T14:46:24.371Z,2.15
2018-01-17T14:48:52.026Z,2.28
2018-01-17T14:51:19.671Z,2.22
2018-01-17T14:53:47.385Z,2.19
2018-01-17T14:56:15.122Z,2.27
2018-01-17T14:58:42.747Z,2.40
2018-01-17T15:01:10.386Z,2.47
2018-01-17T15:03:38.032Z,2.65
2018-01-17T15:06:05.792Z,2.54
2018-01-17T15:08:33.496Z,2.69
2018-01-17T15:11:01.253Z,2.49
2018-01-17T15:13:28.864Z,2.38
2018-01-17T15:15:56.504Z,2.28
2018-01-17T15:18:24.143Z,2.20
2018-01-17T15:20:51.787Z,2.12
2018-01-17T15:23:19.521Z,2.21
2018-01-17T15:25:47.231Z,2.14
2018-01-17T15:28:14.872Z,2.21
2018-01-17T15:30:42.536Z,2.30
2018-01-17T15:33:10.196Z,2.23
2018-01-17T15:35:37.812Z,2.23
2018-01-17T15:38:05.428Z,2.27
2018-01-17T15:40:33.088Z,2.38
2018-01-17T15:43:00.732Z,2.38
2018-01-17T15:45:28.357Z,2.44
2018-01-17T15:47:56.058Z,2.45
2018-01-17T15:50:23.930Z,2.38
2018-01-17T15:52:51.561Z,2.23
2018-01-17T15:55:19.246Z,2.19
2018-01-17T15:57:46.869Z,2.26
2018-01-17T16:00:14.491Z,2.26
2018-01-17T16:02:42.287Z,2.08
2018-01-17T16:05:10.001Z,2.13
2018-01-17T16:07:37.803Z,2.10
2018-01-17T16:10:05.472Z,2.09
2018-01-17T16:12:33.311Z,2.15
2018-01-17T16:15:00.951Z,2.10
2018-01-17T16:17:28.711Z,2.38
2018-01-17T16:19:56.433Z,2.33
2018-01-17T16:22:24.243Z,2.28
2018-01-17T16:24:51.874Z,2.31
2018-01-17T16:27:19.482Z,2.40
2018-01-17T16:29:47.111Z,2.34
2018-01-17T16:32:14.907Z,2.32
2018-01-17T16:34:42.547Z,2.36
2018-01-17T16:37:10.177Z,2.43
2018-01-17T16:39:37.822Z,2.41
2018-01-17T16:42:05.512Z,2.43
2018-01-17T16:44:33.420Z,2.41
2018-01-17T16:47:01.039Z,2.58
2018-01-17T16:49:28.902Z,2.49
2018-01-17T16:51:56.548Z,2.49
2018-01-17T16:54:24.269Z,2.53
2018-01-17T16:56:51.968Z,2.39
2018-01-17T16:59:19.611Z,2.34
2018-01-17T17:01:47.227Z,2.41
2018-01-17T17:04:14.868Z,2.41
2018-01-17T17:06:42.544Z,2.66
2018-01-17T17:09:10.263Z,2.61
2018-01-17T17:11:37.943Z,2.71
2018-01-17T17:14:05.574Z,2.88
2018-01-17T17:16:33.283Z,2.89
2018-01-17T17:19:01.050Z,2.88
2018-01-17T17:21:28.678Z,2.78
2018-01-17T17:23:56.391Z,2.65
2018-01-17T17:26:24.003Z,2.49
2018-01-17T17:28:51.774Z,2.47
2018-01-17T17:31:19.432Z,2.57
2018-01-17T17:33:47.123Z,2.55
2018-01-17T17:36:14.892Z,2.43
2018-01-17T17:38:42.514Z,2.41
2018-01-17T17:41:10.270Z,2.37
2018-01-17T17:43:37.942Z,2.34
2018-01-17T17:46:05.767Z,2.37
2018-01-17T17:48:33.384Z,2.28
2018-01-17T17:51:01.025Z,2.28
2018-01-17T17:53:28.648Z,2.35
2018-01-17T17:55:56.370Z,2.40
2018-01-17T17:58:24.059Z,2.39
2018-01-17T18:00:51.918Z,2.43
2018-01-17T18:03:19.528Z,2.30
2018-01-17T18:05:47.201Z,2.27
2018-01-17T18:08:14.990Z,2.27
2018-01-17T18:10:44.242Z,2.32
2018-01-17T18:13:11.868Z,2.35
2018-01-17T18:15:39.707Z,2.37
2018-01-17T18:18:07.573Z,2.40
2018-01-17T18:20:35.217Z,2.50
2018-01-17T18:23:02.956Z,2.50
2018-01-17T18:25:30.651Z,2.49
2018-01-17T18:27:58.384Z,2.43
2018-01-17T18:30:26.297Z,2.37
2018-01-17T18:32:54.209Z,2.18
2018-01-17T18:35:21.838Z,2.06
2018-01-17T18:37:49.497Z,1.96
2018-01-17T18:40:17.264Z,1.83
2018-01-17T18:42:44.958Z,1.72
2018-01-17T18:45:12.666Z,1.64
2018-01-17T18:47:40.343Z,1.72
2018-01-17T18:50:08.055Z,1.72
2018-01-17T18:52:35.691Z,1.63
2018-01-17T18:55:03.529Z,1.70
2018-01-17T18:57:31.334Z,1.73
2018-01-17T18:59:59.056Z,1.66
2018-01-17T19:02:26.816Z,1.52
2018-01-17T19:04:54.687Z,1.51
2018-01-17T19:07:22.437Z,1.48
2018-01-17T19:09:50.068Z,1.55
2018-01-17T19:12:17.720Z,1.55
2018-01-17T19:14:45.528Z,1.66
2018-01-17T19:17:13.209Z,1.73
2018-01-17T19:19:40.828Z,1.79
2018-01-17T19:22:08.637Z,1.88
2018-01-17T19:24:36.532Z,1.87
2018-01-17T19:27:04.209Z,1.99
2018-01-17T19:29:31.842Z,2.02
2018-01-17T19:31:59.683Z,2.21
2018-01-17T19:34:27.349Z,2.18
2018-01-17T19:36:55.041Z,2.03
2018-01-17T19:39:22.775Z,2.07
2018-01-17T19:41:50.439Z,2.17
2018-01-17T19:44:18.094Z,2.10
2018-01-17T19:46:45.703Z,2.19
2018-01-17T19:49:13.382Z,2.10
2018-01-17T19:51:41.051Z,2.13
2018-01-17T19:54:08.682Z,2.22
2018-01-17T19:56:36.340Z,2.20
2018-01-17T19:59:04.037Z,2.24
2018-01-17T20:01:31.862Z,2.43
2018-01-17T20:03:59.703Z,2.36
2018-01-17T20:06:27.683Z,2.22
2018-01-17T20:08:55.327Z,2.20
2018-01-17T20:11:23.262Z,2.15
2018-01-17T20:13:51.162Z,2.28
2018-01-17T20:16:18.808Z,2.25
2018-01-17T20:18:46.482Z,2.22
2018-01-17T20:21:14.123Z,2.14
2018-01-17T20:23:41.807Z,2.37
2018-01-17T20:26:09.457Z,2.25
2018-01-17T20:28:37.176Z,2.37
2018-01-17T20:31:04.928Z,2.53
2018-01-17T20:33:32.627Z,2.43
2018-01-17T20:36:00.245Z,2.28
2018-01-17T20:38:27.927Z,2.33
2018-01-17T20:40:55.669Z,2.33
2018-01-17T20:43:23.307Z,2.41
2018-01-17T20:45:50.922Z,2.18
2018-01-17T20:48:18.592Z,2.52
2018-01-17T20:50:46.302Z,2.46
2018-01-17T20:53:13.996Z,2.44
2018-01-17T20:55:41.783Z,2.38
2018-01-17T20:58:09.407Z,2.14
2018-01-17T21:00:37.037Z,2.19
2018-01-17T21:03:04.644Z,2.18
2018-01-17T21:05:32.282Z,2.30
2018-01-17T21:07:59.942Z,2.24
2018-01-17T21:10:27.593Z,2.24
2018-01-17T21:12:55.258Z,2.22
2018-01-17T21:15:22.948Z,2.29
2018-01-17T21:17:50.721Z,2.33
2018-01-17T21:20:18.348Z,2.41
2018-01-17T21:22:46.032Z,2.40
2018-01-17T21:25:13.708Z,2.28
2018-01-17T21:27:41.417Z,2.14
2018-01-17T21:30:09.091Z,1.91
2018-01-17T21:32:36.743Z,1.59
2018-01-17T21:35:04.508Z,1.64
2018-01-17T21:37:32.198Z,1.53
2018-01-17T21:39:59.846Z,1.50
2018-01-17T21:42:33.157Z,1.61
2018-01-17T21:45:06.543Z,1.66
2018-01-17T21:47:34.186Z,1.80
2018-01-17T21:50:01.987Z,1.59
2018-01-17T21:52:29.632Z,1.83
2018-01-17T21:54:57.273Z,2.05
2018-01-17T21:57:24.919Z,1.78
2018-01-17T21:59:52.718Z,1.67
2018-01-17T22:02:20.328Z,1.70
2018-01-17T22:04:48.013Z,1.72
2018-01-17T22:07:15.640Z,1.62
2018-01-17T22:09:43.327Z,1.57
2018-01-17T22:12:10.978Z,1.74
2018-01-17T22:14:38.847Z,1.91
2018-01-17T22:17:06.682Z,1.76
2018-01-17T22:19:34.283Z,1.60
2018-01-17T22:22:01.917Z,1.68
2018-01-17T22:24:29.723Z,1.62
2018-01-17T22:26:57.360Z,1.75
2018-01-17T22:29:25.070Z,1.72
2018-01-17T22:31:52.697Z,1.58
2018-01-17T22:34:20.312Z,1.57
2018-01-17T22:36:47.952Z,1.67
2018-01-17T22:39:15.572Z,1.51
2018-01-17T22:41:43.197Z,1.48
2018-01-17T22:44:10.817Z,1.30
2018-01-17T22:46:38.583Z,1.32
2018-01-17T22:49:06.180Z,1.45
2018-01-17T22:51:34.741Z,1.51
2018-01-17T22:54:02.367Z,1.49
2018-01-17T22:56:29.982Z,1.50
2018-01-17T22:58:57.617Z,1.65
2018-01-17T23:01:25.496Z,1.63
2018-01-17T23:03:53.128Z,1.65
2018-01-17T23:06:20.799Z,1.55
2018-01-17T23:08:48.414Z,1.52
2018-01-17T23:11:16.050Z,1.60
2018-01-17T23:13:43.753Z,1.53
2018-01-17T23:16:11.458Z,1.44
2018-01-17T23:18:39.083Z,1.51
2018-01-17T23:21:06.693Z,1.48
2018-01-17T23:23:34.523Z,1.56
2018-01-17T23:26:02.123Z,1.41
2018-01-17T23:28:29.727Z,1.46
2018-01-17T23:30:57.365Z,1.53
2018-01-17T23:33:25.147Z,1.39
2018-01-17T23:35:52.804Z,1.36
2018-01-17T23:38:20.472Z,1.43
2018-01-17T23:40:48.885Z,1.58
2018-01-17T23:43:16.507Z,1.68
2018-01-17T23:45:44.163Z,1.90
2018-01-17T23:48:11.793Z,1.97
2018-01-17T23:50:39.507Z,2.06
2018-01-17T23:53:07.177Z,2.15
2018-01-17T23:55:34.906Z,2.26
2018-01-17T23:58:02.518Z,2.34
